Antonino, Kansas
Current Conditions -  °F | °C
As of 11:55 AM on Friday 21 Nov 2014 (Local Time) from KHYS Reporting Station
Clear Clear  
Wind Chill:   Ceiling: Unl
Heat Index:   Visibility: 10mi
Dew Point: -5°   Wind: 5mph
Humidity: 52%   Direction: 180°S
Pressure: 30.07"   Gusts: NA
Location:  38.8338°N, 99.3297°W
Report Text: KHYS 211755Z AUTO 18004KT 10SM CLR 04/M05 A3007 RMK AO1 10050 21060 57014
Loading
Personal Weather Stations






























Interactive Weather Map New forecast layout! Learn more

10-Day Weather Forecast

Advertisements
Track Severe Weather on mobile